Time;durP1;ratioP1;P1;durP2;ratioP2;P2;SDS_P1;SDS_P2;PMS_P1;PMS_P2;Temp;Humidity;BMP_temperature;BMP_pressure;BME280_temperature;BME280_humidity;BME280_pressure;Samples;Min_cycle;Max_cycle;Signal;HPM_P1;HPM_P2
2023/04/18 00:02:09;;;;;;;1.67;1.58;;;11.30;96.60;;;;;;5051670;28;20324;-71
2023/04/18 00:04:35;;;;;;;1.27;1.27;;;11.30;96.30;;;;;;5057972;28;20179;-70
2023/04/18 00:07:00;;;;;;;1.85;1.75;;;11.30;96.30;;;;;;5051328;28;20179;-70
2023/04/18 00:09:26;;;;;;;2.05;1.95;;;11.40;96.10;;;;;;5051780;28;20198;-70
2023/04/18 00:11:52;;;;;;;1.52;1.42;;;11.40;96.10;;;;;;5050329;28;20187;-70
2023/04/18 00:14:19;;;;;;;1.80;1.70;;;11.40;96.40;;;;;;5053077;28;20253;-70
2023/04/18 00:16:45;;;;;;;1.58;1.48;;;11.50;96.40;;;;;;5052243;28;20202;-71
2023/04/18 00:19:13;;;;;;;1.48;1.48;;;11.50;96.20;;;;;;5051960;28;20684;-70
2023/04/18 00:21:43;;;;;;;1.27;1.27;;;11.50;96.50;;;;;;5056705;28;20176;-70
2023/04/18 00:24:09;;;;;;;4.55;1.90;;;11.60;96.50;;;;;;5049519;28;20233;-70
2023/04/18 00:26:35;;;;;;;1.83;1.70;;;11.60;96.10;;;;;;5055499;28;20857;-70
2023/04/18 00:29:02;;;;;;;4.55;1.75;;;11.60;96.10;;;;;;5059863;28;20174;-70
2023/04/18 00:31:28;;;;;;;1.98;1.88;;;11.60;96.10;;;;;;5060144;28;20183;-71
2023/04/18 00:33:53;;;;;;;1.60;1.60;;;11.60;96.20;;;;;;5058402;28;20187;-70
2023/04/18 00:36:19;;;;;;;1.83;1.48;;;11.60;96.30;;;;;;5055260;28;20645;-70
2023/04/18 00:38:45;;;;;;;2.03;1.98;;;11.60;95.80;;;;;;5050684;28;20611;-71
2023/04/18 00:41:10;;;;;;;1.80;1.70;;;11.60;95.90;;;;;;5052954;28;20180;-70
2023/04/18 00:43:36;;;;;;;1.77;1.77;;;11.60;96.00;;;;;;5055369;28;20199;-71
2023/04/18 00:46:02;;;;;;;2.03;1.67;;;11.50;96.20;;;;;;5052266;28;20187;-70
2023/04/18 00:48:29;;;;;;;1.70;1.60;;;11.50;96.50;;;;;;5054663;28;20665;-71
2023/04/18 00:50:55;;;;;;;2.65;2.03;;;11.60;96.50;;;;;;5056189;28;20728;-71
2023/04/18 00:53:21;;;;;;;2.40;1.85;;;11.60;96.60;;;;;;5054825;28;20180;-70
2023/04/18 00:55:47;;;;;;;2.35;2.20;;;11.60;96.70;;;;;;5052980;28;20557;-70
2023/04/18 00:58:13;;;;;;;1.88;1.77;;;11.60;96.80;;;;;;5049828;28;20191;-70
2023/04/18 01:00:40;;;;;;;1.88;1.75;;;11.60;96.90;;;;;;5050867;28;20175;-70
2023/04/18 01:03:07;;;;;;;2.42;2.33;;;11.60;97.10;;;;;;5048485;28;20168;-71
2023/04/18 01:05:35;;;;;;;2.42;2.33;;;11.60;97.40;;;;;;5052800;28;20182;-70
2023/04/18 01:08:01;;;;;;;1.95;1.85;;;11.60;97.50;;;;;;5049583;28;20236;-71
2023/04/18 01:10:28;;;;;;;4.53;2.65;;;11.50;97.60;;;;;;5050742;28;20187;-70
2023/04/18 01:13:16;;;;;;;2.33;2.10;;;11.60;97.50;;;;;;5055007;28;20207;-70
2023/04/18 01:15:44;;;;;;;1.75;1.73;;;11.60;97.20;;;;;;5050363;28;20188;-70
2023/04/18 01:18:12;;;;;;;1.65;1.58;;;11.60;97.50;;;;;;5052840;28;20602;-70
2023/04/18 01:20:40;;;;;;;1.88;1.77;;;11.60;97.30;;;;;;5051975;28;20222;-70
2023/04/18 01:23:06;;;;;;;1.90;1.25;;;11.60;97.20;;;;;;5058922;28;20179;-70
2023/04/18 01:25:33;;;;;;;1.23;1.23;;;11.60;97.20;;;;;;5048995;28;20568;-70
2023/04/18 01:27:59;;;;;;;1.45;1.45;;;11.60;97.20;;;;;;5048433;28;20270;-70
2023/04/18 01:30:25;;;;;;;1.65;1.55;;;11.70;97.30;;;;;;5050874;28;20898;-72
2023/04/18 01:32:51;;;;;;;1.50;1.50;;;11.70;97.10;;;;;;5052684;28;20328;-70
2023/04/18 01:35:17;;;;;;;1.45;1.45;;;11.70;97.00;;;;;;5049766;28;20668;-70
2023/04/18 01:37:43;;;;;;;1.48;1.48;;;11.70;97.20;;;;;;5057146;28;20661;-70
2023/04/18 01:40:09;;;;;;;1.10;1.10;;;11.70;97.10;;;;;;5050857;28;20710;-70
2023/04/18 01:42:35;;;;;;;1.77;1.55;;;11.70;97.00;;;;;;5054030;28;20564;-71
2023/04/18 01:45:01;;;;;;;1.80;1.70;;;11.70;97.00;;;;;;5047522;28;20198;-70
2023/04/18 01:47:27;;;;;;;1.10;1.05;;;11.70;97.10;;;;;;5046003;28;20187;-71
2023/04/18 01:49:53;;;;;;;1.27;1.20;;;11.60;97.00;;;;;;5042301;28;20188;-70
2023/04/18 01:52:18;;;;;;;1.42;1.23;;;11.60;97.10;;;;;;5052511;28;20183;-70
2023/04/18 01:54:44;;;;;;;1.83;1.73;;;11.60;97.20;;;;;;5056993;28;20588;-70
2023/04/18 01:57:10;;;;;;;1.05;1.05;;;11.60;97.50;;;;;;5048807;28;20187;-71
2023/04/18 01:59:35;;;;;;;1.02;1.02;;;11.60;97.70;;;;;;5051386;28;20211;-70
2023/04/18 02:02:01;;;;;;;1.17;1.17;;;11.50;97.60;;;;;;5050299;28;20186;-70
2023/04/18 02:04:27;;;;;;;1.13;1.13;;;11.60;97.70;;;;;;5054435;28;20187;-71
2023/04/18 02:06:52;;;;;;;1.13;1.13;;;11.50;97.60;;;;;;5052230;28;20183;-71
2023/04/18 02:09:18;;;;;;;1.50;1.20;;;11.50;97.80;;;;;;5051216;28;20188;-71
2023/04/18 02:11:44;;;;;;;1.90;1.30;;;11.50;97.60;;;;;;5053690;28;20221;-70
2023/04/18 02:14:10;;;;;;;2.30;1.52;;;11.50;97.90;;;;;;5054295;28;20207;-71
2023/04/18 02:16:35;;;;;;;1.20;1.20;;;11.40;97.80;;;;;;5053935;28;20183;-70
2023/04/18 02:19:03;;;;;;;1.60;1.58;;;11.40;98.20;;;;;;5048040;28;20207;-70
2023/04/18 02:21:29;;;;;;;1.75;1.50;;;11.40;98.20;;;;;;5053626;28;20200;-71
2023/04/18 02:23:55;;;;;;;2.45;2.35;;;11.30;98.30;;;;;;5052807;28;20187;-70
2023/04/18 02:26:21;;;;;;;2.35;2.22;;;11.30;98.40;;;;;;5045590;28;20584;-71
2023/04/18 02:28:47;;;;;;;2.70;2.05;;;11.30;98.50;;;;;;5049784;28;20291;-70
2023/04/18 02:31:13;;;;;;;2.05;1.83;;;11.30;98.50;;;;;;5052314;28;20274;-70
2023/04/18 02:33:44;;;;;;;1.85;1.80;;;11.30;98.50;;;;;;5049454;28;20229;-70
2023/04/18 02:36:11;;;;;;;2.30;2.20;;;11.30;98.50;;;;;;5049306;28;20256;-70
2023/04/18 02:38:37;;;;;;;1.92;1.83;;;11.30;98.50;;;;;;5054917;28;20219;-69
2023/04/18 02:41:03;;;;;;;2.63;2.42;;;11.30;98.50;;;;;;5057656;28;20176;-71
2023/04/18 02:43:29;;;;;;;2.65;2.47;;;11.30;98.50;;;;;;5055237;28;20782;-70
2023/04/18 02:45:55;;;;;;;4.10;2.70;;;11.40;98.50;;;;;;5057900;28;20194;-71
2023/04/18 02:48:22;;;;;;;2.35;2.20;;;11.40;98.50;;;;;;5053668;28;20183;-71
2023/04/18 02:50:47;;;;;;;4.22;2.38;;;11.40;98.50;;;;;;5056072;28;20183;-70
2023/04/18 02:53:13;;;;;;;3.28;3.00;;;11.40;98.50;;;;;;5053421;28;20194;-71
2023/04/18 02:55:39;;;;;;;3.28;3.00;;;11.40;98.50;;;;;;5059476;28;20195;-70
2023/04/18 02:58:05;;;;;;;3.22;2.97;;;11.40;98.50;;;;;;5058580;28;20195;-70
2023/04/18 03:00:31;;;;;;;3.33;3.03;;;11.40;98.50;;;;;;5058669;28;20210;-71
2023/04/18 03:02:56;;;;;;;4.03;2.83;;;11.40;98.50;;;;;;5055503;28;20849;-70
2023/04/18 03:05:22;;;;;;;4.25;3.85;;;11.40;98.50;;;;;;5057676;28;20717;-71
2023/04/18 03:07:48;;;;;;;3.15;2.85;;;11.40;98.50;;;;;;5054542;28;20638;-70
2023/04/18 03:10:14;;;;;;;3.17;2.88;;;11.50;98.50;;;;;;5056496;28;20175;-71
2023/04/18 03:12:39;;;;;;;4.97;3.65;;;11.50;98.50;;;;;;5057038;28;20237;-71
2023/04/18 03:15:06;;;;;;;4.03;3.30;;;11.50;98.50;;;;;;5058166;28;20183;-71
2023/04/18 03:17:31;;;;;;;4.85;3.30;;;11.50;98.50;;;;;;5056764;28;20182;-70
2023/04/18 03:19:57;;;;;;;3.55;3.35;;;11.50;98.40;;;;;;5057634;28;20593;-71
2023/04/18 03:22:23;;;;;;;3.97;3.67;;;11.50;98.50;;;;;;5056075;28;20244;-70
2023/04/18 03:24:49;;;;;;;3.67;3.40;;;11.50;98.50;;;;;;5056635;28;20689;-71
2023/04/18 03:27:14;;;;;;;3.72;3.42;;;11.50;98.50;;;;;;5054697;28;20670;-70
2023/04/18 03:29:40;;;;;;;3.63;3.30;;;11.40;98.50;;;;;;5058222;28;20184;-70
2023/04/18 03:32:06;;;;;;;3.78;3.47;;;11.50;98.50;;;;;;5052162;28;20219;-71
2023/04/18 03:34:31;;;;;;;4.72;3.70;;;11.50;98.50;;;;;;5059496;28;20737;-70
2023/04/18 03:36:57;;;;;;;3.67;3.28;;;11.50;98.50;;;;;;5054156;28;20188;-70
2023/04/18 03:39:23;;;;;;;2.90;2.75;;;11.50;98.50;;;;;;5053457;28;20212;-70
2023/04/18 03:41:51;;;;;;;3.53;3.33;;;11.50;98.50;;;;;;5054773;28;20259;-71
2023/04/18 03:44:16;;;;;;;3.85;3.05;;;11.50;98.50;;;;;;5055783;28;20284;-70
2023/04/18 03:46:42;;;;;;;5.68;3.00;;;11.50;98.50;;;;;;5053362;28;20191;-70
2023/04/18 03:49:08;;;;;;;3.83;3.53;;;11.50;98.50;;;;;;5052278;28;20223;-70
2023/04/18 03:51:42;;;;;;;3.30;3.10;;;11.50;98.50;;;;;;5055732;28;20172;-70
2023/04/18 03:54:08;;;;;;;3.58;3.28;;;11.50;98.50;;;;;;5050296;28;20686;-70
2023/04/18 03:56:34;;;;;;;3.72;3.42;;;11.50;98.50;;;;;;5054849;28;20313;-71
2023/04/18 03:59:00;;;;;;;3.92;3.33;;;11.50;98.50;;;;;;5053164;28;20208;-70
2023/04/18 04:01:26;;;;;;;6.63;3.22;;;11.50;98.50;;;;;;5053814;28;20176;-70
2023/04/18 04:03:53;;;;;;;3.20;2.90;;;11.50;98.50;;;;;;5055209;28;20708;-70
2023/04/18 04:06:18;;;;;;;3.28;3.08;;;11.40;98.50;;;;;;5056526;28;21944;-70
2023/04/18 04:08:44;;;;;;;4.22;3.15;;;11.40;98.50;;;;;;5056665;28;20180;-70
2023/04/18 04:11:10;;;;;;;3.05;2.85;;;11.40;98.50;;;;;;5059489;28;20176;-71
2023/04/18 04:13:36;;;;;;;2.97;2.65;;;11.40;98.50;;;;;;5052812;28;20179;-70
2023/04/18 04:16:01;;;;;;;4.55;2.63;;;11.40;98.50;;;;;;5053540;28;20199;-70
2023/04/18 04:18:30;;;;;;;3.05;2.65;;;11.40;98.50;;;;;;5052181;28;20279;-70
2023/04/18 04:20:57;;;;;;;2.50;2.40;;;11.40;98.50;;;;;;5052174;28;20192;-71
2023/04/18 04:23:24;;;;;;;2.90;2.63;;;11.40;98.50;;;;;;5053690;28;20275;-70
2023/04/18 04:25:51;;;;;;;2.78;2.58;;;11.40;98.50;;;;;;5052639;28;20179;-71
2023/04/18 04:28:21;;;;;;;2.88;2.72;;;11.40;98.50;;;;;;5050266;28;20748;-71
2023/04/18 04:30:49;;;;;;;2.60;2.40;;;11.50;98.50;;;;;;5059579;28;20236;-71
2023/04/18 04:33:18;;;;;;;2.83;2.58;;;11.50;98.50;;;;;;5050283;28;20195;-71
2023/04/18 04:35:45;;;;;;;2.72;2.53;;;11.50;98.50;;;;;;5050776;28;20682;-70
2023/04/18 04:38:15;;;;;;;2.83;2.58;;;11.50;98.50;;;;;;5056180;28;20183;-71
2023/04/18 04:40:41;;;;;;;3.95;2.72;;;11.50;98.50;;;;;;5053800;28;20215;-71
2023/04/18 04:43:11;;;;;;;3.03;2.80;;;11.50;98.50;;;;;;5056640;28;20175;-71
2023/04/18 04:45:40;;;;;;;2.47;2.38;;;11.50;98.50;;;;;;5054598;28;20191;-71
2023/04/18 04:48:07;;;;;;;2.20;2.10;;;11.50;98.50;;;;;;5049298;28;20183;-71
2023/04/18 04:50:35;;;;;;;2.60;2.40;;;11.50;98.50;;;;;;5056619;28;20672;-71
2023/04/18 04:53:01;;;;;;;2.97;2.78;;;11.60;98.50;;;;;;5050555;28;20187;-71
2023/04/18 04:55:27;;;;;;;3.00;2.83;;;11.60;98.50;;;;;;5053560;28;21320;-72
2023/04/18 04:57:54;;;;;;;2.05;1.95;;;11.60;98.50;;;;;;5052763;28;20184;-72
2023/04/18 05:00:20;;;;;;;3.28;2.85;;;11.60;98.50;;;;;;5058131;28;20207;-70
2023/04/18 05:02:46;;;;;;;3.08;2.88;;;11.60;98.40;;;;;;5052876;28;20771;-72
2023/04/18 05:05:12;;;;;;;2.35;2.15;;;11.60;98.50;;;;;;5053330;28;20258;-72
2023/04/18 05:07:38;;;;;;;2.63;2.42;;;11.70;98.50;;;;;;5057248;28;20345;-72
2023/04/18 05:10:04;;;;;;;3.05;2.85;;;11.70;98.50;;;;;;5060435;28;20679;-72
2023/04/18 05:12:30;;;;;;;5.53;2.60;;;11.70;98.50;;;;;;5055245;28;20179;-72
2023/04/18 05:14:56;;;;;;;2.83;2.67;;;11.80;98.30;;;;;;5055124;28;20272;-72
2023/04/18 05:17:22;;;;;;;2.72;2.55;;;11.80;98.40;;;;;;5054359;28;20551;-72
2023/04/18 05:19:47;;;;;;;3.80;2.70;;;11.90;98.20;;;;;;5056320;28;20219;-72
2023/04/18 05:22:13;;;;;;;3.22;3.03;;;11.90;98.20;;;;;;5056497;28;20202;-71
2023/04/18 05:24:40;;;;;;;3.40;3.13;;;12.00;98.00;;;;;;5057207;28;20186;-72
2023/04/18 05:27:06;;;;;;;2.95;2.85;;;12.00;97.80;;;;;;5055731;28;20179;-72
2023/04/18 05:29:31;;;;;;;3.00;2.83;;;12.00;97.30;;;;;;5059158;28;20219;-72
2023/04/18 05:31:57;;;;;;;2.80;2.60;;;11.90;97.40;;;;;;5055281;28;20215;-72
2023/04/18 05:34:23;;;;;;;2.53;2.30;;;11.80;97.50;;;;;;5055029;28;20309;-72
2023/04/18 05:36:49;;;;;;;3.42;3.13;;;11.80;97.40;;;;;;5054491;28;20237;-73
2023/04/18 05:39:15;;;;;;;2.72;2.53;;;11.80;97.80;;;;;;5051076;28;20226;-72
2023/04/18 05:41:41;;;;;;;2.75;2.60;;;11.90;97.80;;;;;;5053866;28;20266;-71
2023/04/18 05:44:07;;;;;;;2.35;2.25;;;12.00;97.80;;;;;;5054278;28;20561;-72
2023/04/18 05:46:34;;;;;;;3.05;2.85;;;12.10;97.80;;;;;;5059277;28;20612;-72
2023/04/18 05:49:00;;;;;;;3.42;3.22;;;12.20;97.60;;;;;;5060772;28;20190;-71
2023/04/18 05:51:27;;;;;;;3.65;2.63;;;12.40;97.50;;;;;;5052618;28;20180;-72
2023/04/18 05:53:53;;;;;;;4.65;3.03;;;12.50;97.00;;;;;;5052931;28;20324;-72
2023/04/18 05:56:18;;;;;;;2.53;2.28;;;12.60;96.50;;;;;;5053391;28;20274;-72
2023/04/18 05:58:45;;;;;;;2.67;2.47;;;12.70;96.20;;;;;;5055418;28;20210;-72
2023/04/18 06:01:13;;;;;;;4.22;2.65;;;12.80;95.30;;;;;;5051062;28;20188;-71
2023/04/18 06:03:40;;;;;;;5.82;2.92;;;12.90;95.30;;;;;;5055656;28;20191;-72
2023/04/18 06:06:06;;;;;;;2.88;2.67;;;12.90;95.00;;;;;;5051191;28;20221;-71
2023/04/18 06:08:32;;;;;;;3.05;2.75;;;12.90;94.60;;;;;;5054320;28;20725;-71
2023/04/18 06:10:57;;;;;;;3.13;2.90;;;12.90;94.60;;;;;;5055302;28;20270;-71
2023/04/18 06:13:23;;;;;;;3.22;3.00;;;13.00;94.80;;;;;;5057411;28;20183;-70
2023/04/18 06:15:49;;;;;;;2.78;2.58;;;13.00;94.80;;;;;;5054357;28;20180;-71
2023/04/18 06:18:15;;;;;;;3.38;3.08;;;13.10;94.80;;;;;;5055388;28;20188;-72
2023/04/18 06:20:42;;;;;;;2.65;2.53;;;13.20;94.10;;;;;;5053295;28;20204;-72
2023/04/18 06:23:08;;;;;;;3.67;3.42;;;13.30;92.90;;;;;;5052695;28;20838;-72
2023/04/18 06:25:34;;;;;;;3.10;2.90;;;13.30;92.90;;;;;;5050773;28;20263;-71
2023/04/18 06:28:00;;;;;;;3.10;2.85;;;13.20;92.80;;;;;;5059859;28;20203;-71
2023/04/18 06:30:25;;;;;;;3.85;2.58;;;13.20;93.40;;;;;;5050567;28;20191;-72
2023/04/18 06:32:51;;;;;;;2.65;2.42;;;13.10;93.30;;;;;;5052027;28;20184;-72
2023/04/18 06:35:17;;;;;;;3.85;3.20;;;13.10;92.70;;;;;;5051955;28;20189;-72
2023/04/18 06:37:43;;;;;;;2.65;2.55;;;13.00;91.30;;;;;;5055547;28;20172;-71
2023/04/18 06:40:10;;;;;;;3.08;2.78;;;13.00;91.50;;;;;;5053735;28;20302;-71
2023/04/18 06:42:37;;;;;;;2.88;2.65;;;13.00;91.10;;;;;;5054711;28;20206;-71
2023/04/18 06:45:02;;;;;;;3.45;2.97;;;13.00;92.10;;;;;;5055311;28;20568;-72
2023/04/18 06:47:29;;;;;;;3.28;2.97;;;13.00;92.90;;;;;;5059010;28;20190;-72
2023/04/18 06:49:54;;;;;;;3.80;3.40;;;13.10;93.60;;;;;;5053216;28;20183;-71
2023/04/18 06:52:20;;;;;;;3.38;3.08;;;13.10;93.10;;;;;;5053906;28;20607;-72
2023/04/18 06:54:46;;;;;;;3.13;2.92;;;13.20;93.20;;;;;;5054148;28;20167;-72
2023/04/18 06:57:11;;;;;;;3.40;3.10;;;13.20;92.90;;;;;;5053067;28;20237;-71
2023/04/18 06:59:37;;;;;;;3.90;3.28;;;13.10;89.90;;;;;;5051781;28;20235;-71
2023/04/18 07:02:03;;;;;;;3.40;3.17;;;13.00;89.90;;;;;;5056846;28;20175;-72
2023/04/18 07:04:28;;;;;;;3.15;2.85;;;12.90;89.90;;;;;;5055259;28;20171;-72
2023/04/18 07:06:54;;;;;;;3.42;3.20;;;12.80;90.50;;;;;;5054029;28;20210;-71
2023/04/18 07:09:21;;;;;;;3.20;2.97;;;12.80;90.40;;;;;;5054976;28;20719;-70
2023/04/18 07:11:47;;;;;;;5.13;2.97;;;12.80;90.70;;;;;;5053992;28;20199;-72
2023/04/18 07:14:12;;;;;;;3.58;3.22;;;12.80;90.50;;;;;;5055006;28;20594;-72
2023/04/18 07:16:38;;;;;;;4.82;3.33;;;12.90;91.00;;;;;;5056487;28;20193;-70
2023/04/18 07:19:04;;;;;;;4.32;3.92;;;13.00;91.70;;;;;;5052651;28;20235;-72
2023/04/18 07:21:30;;;;;;;6.03;3.88;;;13.10;92.40;;;;;;5057943;28;20184;-72
2023/04/18 07:23:56;;;;;;;5.18;3.42;;;13.20;91.80;;;;;;5053722;28;20175;-71
2023/04/18 07:26:21;;;;;;;3.08;2.80;;;13.20;91.30;;;;;;5055241;28;20179;-73
2023/04/18 07:28:48;;;;;;;3.67;3.38;;;13.40;91.00;;;;;;5053490;28;20183;-73
2023/04/18 07:31:15;;;;;;;3.22;2.95;;;13.60;90.20;;;;;;5058697;28;20175;-72
2023/04/18 07:33:42;;;;;;;3.15;2.92;;;13.80;89.10;;;;;;5061232;28;20179;-73
2023/04/18 07:36:07;;;;;;;2.92;2.67;;;14.00;88.60;;;;;;5059479;28;20713;-71
2023/04/18 07:38:34;;;;;;;2.95;2.72;;;14.30;87.60;;;;;;5058082;28;20250;-74
2023/04/18 07:41:00;;;;;;;2.97;2.75;;;14.40;85.40;;;;;;5053509;28;20357;-72
2023/04/18 07:43:26;;;;;;;2.97;2.83;;;14.40;84.00;;;;;;5058602;28;20206;-72
2023/04/18 07:45:52;;;;;;;2.78;2.58;;;14.40;83.30;;;;;;5053558;28;20278;-72
2023/04/18 07:48:21;;;;;;;2.40;2.30;;;14.30;82.60;;;;;;5058949;28;20184;-73
2023/04/18 07:50:48;;;;;;;2.78;2.58;;;14.30;84.20;;;;;;5060041;28;20257;-71
2023/04/18 07:53:13;;;;;;;2.33;2.15;;;14.40;83.40;;;;;;5058932;28;20670;-72
2023/04/18 07:55:39;;;;;;;2.83;2.63;;;14.40;82.10;;;;;;5054813;28;20270;-72
2023/04/18 07:58:05;;;;;;;3.55;2.25;;;14.40;82.20;;;;;;5056609;28;20215;-72
2023/04/18 08:00:31;;;;;;;3.00;2.80;;;14.40;83.00;;;;;;5059522;28;20210;-73
2023/04/18 08:02:57;;;;;;;4.50;2.55;;;14.40;84.00;;;;;;5051567;28;20173;-72
2023/04/18 08:05:23;;;;;;;3.53;2.63;;;14.40;82.80;;;;;;5050131;28;20189;-72
2023/04/18 08:07:49;;;;;;;2.22;2.13;;;14.60;83.20;;;;;;5058804;28;20176;-73
2023/04/18 08:10:15;;;;;;;1.98;1.80;;;14.70;81.90;;;;;;5054374;28;20183;-72
2023/04/18 08:12:41;;;;;;;2.40;2.20;;;14.80;81.10;;;;;;5055743;28;20254;-70
2023/04/18 08:15:07;;;;;;;2.65;2.05;;;14.80;80.00;;;;;;5054072;28;20187;-70
2023/04/18 08:17:33;;;;;;;2.15;2.05;;;14.90;80.60;;;;;;5053938;28;20183;-70
2023/04/18 08:19:59;;;;;;;2.67;2.47;;;14.90;79.60;;;;;;5055555;28;20229;-71
2023/04/18 08:22:25;;;;;;;2.03;1.92;;;15.00;79.50;;;;;;5054035;28;20544;-71
2023/04/18 08:24:51;;;;;;;4.10;2.50;;;15.10;79.40;;;;;;5051412;28;20195;-72
2023/04/18 08:27:17;;;;;;;2.63;2.35;;;15.00;78.30;;;;;;5053992;28;20194;-72
2023/04/18 08:29:43;;;;;;;3.65;2.40;;;14.90;77.60;;;;;;5055219;28;20183;-71
2023/04/18 08:32:08;;;;;;;2.50;2.30;;;14.90;77.30;;;;;;5049970;28;20625;-69
2023/04/18 08:34:37;;;;;;;1.83;1.70;;;14.90;77.90;;;;;;5052073;28;20182;-70
2023/04/18 08:37:03;;;;;;;2.45;2.35;;;14.90;78.10;;;;;;5071023;28;20690;-72
2023/04/18 08:39:30;;;;;;;2.92;2.72;;;15.00;77.40;;;;;;5053478;28;20219;-71
2023/04/18 08:42:00;;;;;;;3.03;1.98;;;15.20;77.90;;;;;;5054798;28;20188;-71
2023/04/18 08:44:29;;;;;;;2.10;2.00;;;15.40;76.90;;;;;;5053876;28;20699;-71
2023/04/18 08:46:56;;;;;;;1.65;1.65;;;15.60;75.10;;;;;;5052388;28;20229;-71
2023/04/18 08:49:23;;;;;;;1.85;1.70;;;15.60;73.90;;;;;;5050671;28;20263;-71
2023/04/18 08:51:50;;;;;;;1.50;1.40;;;15.60;73.50;;;;;;5052116;28;21009;-71
2023/04/18 08:54:18;;;;;;;2.15;1.95;;;15.60;72.30;;;;;;5050622;28;20266;-71
2023/04/18 08:56:44;;;;;;;2.00;1.90;;;15.80;73.60;;;;;;5055395;28;20175;-71
2023/04/18 08:59:10;;;;;;;1.90;1.90;;;16.10;73.00;;;;;;5047673;28;20237;-71
2023/04/18 09:01:55;;;;;;;1.98;1.88;;;16.10;70.20;;;;;;5054286;28;20179;-71
2023/04/18 09:04:37;;;;;;;2.25;1.85;;;16.00;71.30;;;;;;5052650;28;20716;-71
2023/04/18 09:07:08;;;;;;;2.13;1.50;;;16.20;72.20;;;;;;5057230;28;20195;-71
2023/04/18 09:09:42;;;;;;;1.90;1.80;;;16.30;71.60;;;;;;5055227;28;20183;-71
2023/04/18 09:12:10;;;;;;;1.25;1.25;;;16.40;69.70;;;;;;5058545;28;20183;-71
2023/04/18 09:14:36;;;;;;;1.60;1.50;;;16.60;70.30;;;;;;5054657;28;20190;-71
2023/04/18 09:17:04;;;;;;;1.60;1.52;;;17.00;69.50;;;;;;5056576;28;20208;-71
2023/04/18 09:19:30;;;;;;;2.53;1.90;;;17.20;69.60;;;;;;5057025;28;20614;-71
2023/04/18 09:22:00;;;;;;;1.98;1.90;;;17.70;71.20;;;;;;5054287;28;20196;-71
2023/04/18 09:24:27;;;;;;;1.90;1.90;;;18.70;68.80;;;;;;5088335;28;20203;-71
2023/04/18 09:26:54;;;;;;;2.00;1.90;;;19.70;66.40;;;;;;5055963;28;20258;-71
2023/04/18 09:29:22;;;;;;;1.70;1.60;;;20.50;63.50;;;;;;5057760;28;20208;-72
2023/04/18 09:32:00;;;;;;;2.28;2.17;;;21.20;63.60;;;;;;5053992;28;20186;-70
2023/04/18 09:34:32;;;;;;;2.15;2.05;;;21.90;64.00;;;;;;5054029;28;20178;-72
2023/04/18 09:37:09;;;;;;;1.73;1.52;;;21.90;64.00;;;;;;5041471;28;20235;-72
2023/04/18 09:39:37;;;;;;;2.47;1.60;;;21.80;63.50;;;;;;5038885;28;20723;-72
2023/04/18 09:42:02;;;;;;;0.77;0.77;;;21.50;64.00;;;;;;5040819;28;20199;-71
2023/04/18 09:44:28;;;;;;;1.48;1.20;;;21.10;64.60;;;;;;5043196;28;20211;-72
2023/04/18 09:46:54;;;;;;;0.45;0.45;;;20.60;65.30;;;;;;5038026;28;20338;-72
2023/04/18 09:49:21;;;;;;;0.32;0.32;;;20.30;65.10;;;;;;5045167;28;20211;-71
2023/04/18 09:51:50;;;;;;;0.45;0.45;;;20.00;65.60;;;;;;5043909;28;20251;-73
2023/04/18 09:54:17;;;;;;;0.30;0.30;;;19.80;66.40;;;;;;5038142;28;20196;-71
2023/04/18 09:56:44;;;;;;;0.43;0.43;;;19.60;67.10;;;;;;5040660;28;20367;-71
2023/04/18 09:59:10;;;;;;;0.80;0.38;;;19.40;67.80;;;;;;5039837;28;20223;-71
2023/04/18 10:01:38;;;;;;;0.50;0.50;;;19.20;68.40;;;;;;5044887;28;20204;-71
2023/04/18 10:04:07;;;;;;;0.50;0.50;;;19.10;68.60;;;;;;5037518;28;20207;-73
2023/04/18 10:06:37;;;;;;;0.52;0.52;;;19.00;68.10;;;;;;5043754;28;20247;-71
2023/04/18 10:09:03;;;;;;;0.40;0.40;;;18.90;68.20;;;;;;5043448;28;20596;-71
2023/04/18 10:11:32;;;;;;;0.30;0.30;;;18.70;68.80;;;;;;5038847;28;20207;-70
2023/04/18 10:14:01;;;;;;;0.40;0.40;;;18.50;69.20;;;;;;5038775;28;20294;-71
2023/04/18 10:16:28;;;;;;;0.60;0.60;;;18.30;70.10;;;;;;5043219;28;20200;-72
2023/04/18 10:18:54;;;;;;;0.50;0.47;;;18.20;70.40;;;;;;5037839;28;20229;-71
2023/04/18 10:21:20;;;;;;;0.73;0.70;;;18.00;70.90;;;;;;5041637;28;20653;-71
2023/04/18 10:23:47;;;;;;;0.73;0.73;;;17.80;71.50;;;;;;5045753;28;20225;-71
2023/04/18 10:26:13;;;;;;;0.60;0.60;;;17.70;71.90;;;;;;5042255;28;20195;-71
2023/04/18 10:28:53;;;;;;;0.47;0.47;;;17.70;71.30;;;;;;5042301;28;20206;-71
2023/04/18 10:31:21;;;;;;;0.60;0.60;;;17.60;71.40;;;;;;5041766;28;20206;-71
2023/04/18 10:34:07;;;;;;;0.52;0.52;;;17.60;71.30;;;;;;5038824;28;20203;-70
2023/04/18 10:36:33;;;;;;;0.73;0.68;;;17.60;71.00;;;;;;5044809;28;20215;-71
2023/04/18 10:39:24;;;;;;;0.63;0.63;;;17.50;71.50;;;;;;5051663;28;21593;-71
2023/04/18 10:41:50;;;;;;;0.90;0.90;;;17.50;71.70;;;;;;5044508;28;20207;-71
2023/04/18 10:44:21;;;;;;;0.57;0.57;;;17.50;71.20;;;;;;5042714;28;20226;-71
2023/04/18 10:46:47;;;;;;;1.65;0.77;;;17.50;71.30;;;;;;5043422;28;20705;-70
2023/04/18 10:49:23;;;;;;;0.60;0.60;;;17.50;71.20;;;;;;5046484;28;20214;-71
2023/04/18 10:51:57;;;;;;;0.60;0.60;;;17.70;71.00;;;;;;5043841;28;20309;-72
2023/04/18 10:54:48;;;;;;;1.00;0.70;;;17.80;71.20;;;;;;5045333;28;20597;-71
2023/04/18 10:57:14;;;;;;;0.55;0.55;;;18.10;70.70;;;;;;5044640;28;20736;-71
2023/04/18 10:59:51;;;;;;;0.68;0.68;;;18.40;69.70;;;;;;5044740;28;20231;-71
2023/04/18 11:02:22;;;;;;;0.57;0.57;;;18.70;69.40;;;;;;5042722;28;20218;-71
2023/04/18 11:04:50;;;;;;;0.68;0.68;;;19.10;69.10;;;;;;5056120;28;20203;-71
2023/04/18 11:07:15;;;;;;;0.50;0.50;;;19.60;68.50;;;;;;5070368;28;20203;-72
2023/04/18 11:09:50;;;;;;;0.40;0.40;;;20.30;66.50;;;;;;5046579;28;20198;-71
2023/04/18 11:12:16;;;;;;;0.98;0.60;;;20.70;65.40;;;;;;5046451;28;20367;-71
2023/04/18 11:14:42;;;;;;;0.55;0.55;;;21.10;64.80;;;;;;5051446;28;20206;-71
2023/04/18 11:17:34;;;;;;;0.40;0.40;;;21.90;63.90;;;;;;5050299;28;20238;-72
2023/04/18 11:20:09;;;;;;;0.65;0.65;;;23.10;61.20;;;;;;5047310;28;20231;-70
2023/04/18 11:22:49;;;;;;;0.45;0.45;;;23.80;59.10;;;;;;5053127;28;20718;-72
2023/04/18 11:25:22;;;;;;;0.60;0.60;;;24.40;59.30;;;;;;5051665;28;20310;-72
2023/04/18 11:27:55;;;;;;;0.40;0.40;;;25.30;58.10;;;;;;5052410;28;20264;-72
2023/04/18 11:30:21;;;;;;;0.50;0.50;;;25.90;56.90;;;;;;5056681;28;20192;-72
2023/04/18 11:32:47;;;;;;;0.47;0.47;;;25.90;56.10;;;;;;5054738;28;20183;-73
2023/04/18 11:35:14;;;;;;;0.40;0.40;;;25.70;55.90;;;;;;5053802;28;20193;-72
2023/04/18 11:37:41;;;;;;;1.00;0.68;;;25.20;56.40;;;;;;5048560;28;20204;-72
2023/04/18 11:40:11;;;;;;;0.60;0.60;;;24.80;57.50;;;;;;5052918;28;20222;-72
2023/04/18 11:42:38;;;;;;;0.82;0.60;;;24.30;58.60;;;;;;5054809;28;20219;-71
2023/04/18 11:45:11;;;;;;;0.50;0.50;;;23.70;59.00;;;;;;5051462;28;20215;-72
2023/04/18 11:47:37;;;;;;;0.40;0.40;;;23.10;60.50;;;;;;5051790;28;20200;-71
2023/04/18 11:50:07;;;;;;;0.40;0.40;;;22.80;60.50;;;;;;5051957;28;20669;-73
2023/04/18 11:52:34;;;;;;;0.40;0.40;;;22.30;60.30;;;;;;5051645;28;20224;-69
2023/04/18 11:55:17;;;;;;;1.50;0.30;;;21.80;62.00;;;;;;5049805;28;20219;-71
2023/04/18 11:57:53;;;;;;;0.40;0.40;;;21.40;63.30;;;;;;5053540;28;20752;-71
2023/04/18 12:00:29;;;;;;;0.40;0.40;;;20.90;64.40;;;;;;5054957;28;20224;-71
2023/04/18 12:02:55;;;;;;;0.50;0.50;;;20.20;65.70;;;;;;5053457;28;20664;-72
2023/04/18 12:05:29;;;;;;;0.30;0.30;;;19.70;67.80;;;;;;5053423;28;20266;-72
2023/04/18 12:07:55;;;;;;;0.40;0.40;;;19.40;69.40;;;;;;5057955;28;20853;-71
2023/04/18 12:10:21;;;;;;;0.30;0.30;;;19.10;70.40;;;;;;5052631;28;20187;-70
2023/04/18 12:12:52;;;;;;;0.40;0.40;;;18.60;72.60;;;;;;5053503;28;21925;-70
2023/04/18 12:15:22;;;;;;;1.83;0.30;;;18.30;74.20;;;;;;5052771;28;20267;-70
2023/04/18 12:17:47;;;;;;;1.92;0.40;;;18.10;75.50;;;;;;5053863;28;20667;-70
2023/04/18 12:20:14;;;;;;;0.50;0.50;;;17.80;76.80;;;;;;5050121;28;20298;-70
2023/04/18 12:22:40;;;;;;;0.45;0.45;;;17.60;77.40;;;;;;5053740;28;20188;-70
2023/04/18 12:25:23;;;;;;;0.52;0.32;;;17.30;78.10;;;;;;5053360;28;20627;-70
2023/04/18 12:28:00;;;;;;;0.40;0.40;;;17.20;78.20;;;;;;5057103;28;20268;-71
2023/04/18 12:30:32;;;;;;;0.32;0.32;;;17.00;78.20;;;;;;5051349;28;20183;-70
2023/04/18 12:33:02;;;;;;;1.33;0.50;;;16.80;77.90;;;;;;5055172;28;20183;-70
2023/04/18 12:35:29;;;;;;;0.40;0.30;;;16.60;79.40;;;;;;5048613;28;20183;-70
2023/04/18 12:37:57;;;;;;;1.38;0.40;;;16.50;79.50;;;;;;5049431;28;20623;-70
2023/04/18 12:40:25;;;;;;;0.50;0.35;;;16.60;79.60;;;;;;5055719;28;20202;-70
2023/04/18 12:42:51;;;;;;;0.43;0.43;;;16.70;79.00;;;;;;5050806;28;20187;-70
2023/04/18 12:45:18;;;;;;;0.57;0.30;;;16.90;78.30;;;;;;5049988;28;20183;-70
2023/04/18 12:47:46;;;;;;;0.68;0.50;;;17.10;77.50;;;;;;5051224;28;20179;-70
2023/04/18 12:50:17;;;;;;;1.02;0.32;;;17.30;76.80;;;;;;5052896;28;20291;-75